sensor_id;sensor_type;location;lat;lon;timestamp;temperature;humidity
7936;DHT22;4013;49.744;8.118;2022-09-12T00:01:06;15.40;99.90
7936;DHT22;4013;49.744;8.118;2022-09-12T00:03:33;15.30;99.90
7936;DHT22;4013;49.744;8.118;2022-09-12T00:06:00;15.20;99.90
7936;DHT22;4013;49.744;8.118;2022-09-12T00:08:32;15.20;99.90
7936;DHT22;4013;49.744;8.118;2022-09-12T00:11:05;15.30;99.90
7936;DHT22;4013;49.744;8.118;2022-09-12T00:13:33;15.30;99.90
7936;DHT22;4013;49.744;8.118;2022-09-12T00:16:00;15.30;99.90
7936;DHT22;4013;49.744;8.118;2022-09-12T00:18:27;15.30;99.90
7936;DHT22;4013;49.744;8.118;2022-09-12T00:20:54;15.30;99.90
7936;DHT22;4013;49.744;8.118;2022-09-12T00:23:21;15.20;99.90
7936;DHT22;4013;49.744;8.118;2022-09-12T00:25:48;15.10;99.90
7936;DHT22;4013;49.744;8.118;2022-09-12T00:28:16;15.00;99.90
7936;DHT22;4013;49.744;8.118;2022-09-12T00:30:45;14.90;99.90
7936;DHT22;4013;49.744;8.118;2022-09-12T00:33:13;14.90;99.90
7936;DHT22;4013;49.744;8.118;2022-09-12T00:35:41;14.80;99.90
7936;DHT22;4013;49.744;8.118;2022-09-12T00:38:08;14.70;99.90
7936;DHT22;4013;49.744;8.118;2022-09-12T00:40:35;14.70;99.90
7936;DHT22;4013;49.744;8.118;2022-09-12T00:43:02;14.60;99.90
7936;DHT22;4013;49.744;8.118;2022-09-12T00:45:31;14.60;99.90
7936;DHT22;4013;49.744;8.118;2022-09-12T00:48:01;14.50;99.90
7936;DHT22;4013;49.744;8.118;2022-09-12T00:50:30;14.50;99.90
7936;DHT22;4013;49.744;8.118;2022-09-12T00:53:02;14.60;99.90
7936;DHT22;4013;49.744;8.118;2022-09-12T00:55:33;14.70;99.90
7936;DHT22;4013;49.744;8.118;2022-09-12T00:58:03;14.80;99.90
7936;DHT22;4013;49.744;8.118;2022-09-12T01:00:33;14.80;99.90
7936;DHT22;4013;49.744;8.118;2022-09-12T01:03:02;14.80;99.90
7936;DHT22;4013;49.744;8.118;2022-09-12T01:05:33;14.70;99.90
7936;DHT22;4013;49.744;8.118;2022-09-12T01:08:02;14.70;99.90
7936;DHT22;4013;49.744;8.118;2022-09-12T01:10:29;14.80;99.90
7936;DHT22;4013;49.744;8.118;2022-09-12T01:12:57;14.80;99.90
7936;DHT22;4013;49.744;8.118;2022-09-12T01:15:24;14.70;99.90
7936;DHT22;4013;49.744;8.118;2022-09-12T01:18:05;14.50;99.90
7936;DHT22;4013;49.744;8.118;2022-09-12T01:27:15;14.40;99.90
7936;DHT22;4013;49.744;8.118;2022-09-12T01:30:00;14.30;99.90
7936;DHT22;4013;49.744;8.118;2022-09-12T01:32:39;14.40;99.90
7936;DHT22;4013;49.744;8.118;2022-09-12T01:35:14;14.40;99.90
7936;DHT22;4013;49.744;8.118;2022-09-12T01:37:53;14.40;99.90
7936;DHT22;4013;49.744;8.118;2022-09-12T01:40:30;14.50;99.90
7936;DHT22;4013;49.744;8.118;2022-09-12T01:43:04;14.40;99.90
7936;DHT22;4013;49.744;8.118;2022-09-12T01:45:38;14.40;99.90
7936;DHT22;4013;49.744;8.118;2022-09-12T01:48:14;14.50;99.90
7936;DHT22;4013;49.744;8.118;2022-09-12T01:50:48;14.30;99.90
7936;DHT22;4013;49.744;8.118;2022-09-12T01:53:18;14.30;99.90
7936;DHT22;4013;49.744;8.118;2022-09-12T01:55:48;14.30;99.90
7936;DHT22;4013;49.744;8.118;2022-09-12T01:58:19;14.40;99.90
7936;DHT22;4013;49.744;8.118;2022-09-12T02:00:51;14.40;99.90
7936;DHT22;4013;49.744;8.118;2022-09-12T02:03:23;14.40;99.90
7936;DHT22;4013;49.744;8.118;2022-09-12T02:05:55;14.20;99.90
7936;DHT22;4013;49.744;8.118;2022-09-12T02:08:26;14.20;99.90
7936;DHT22;4013;49.744;8.118;2022-09-12T02:10:59;14.20;99.90
7936;DHT22;4013;49.744;8.118;2022-09-12T02:13:30;14.10;99.90
7936;DHT22;4013;49.744;8.118;2022-09-12T02:16:02;14.20;99.90
7936;DHT22;4013;49.744;8.118;2022-09-12T02:18:33;14.20;99.90
7936;DHT22;4013;49.744;8.118;2022-09-12T02:21:04;14.00;99.90
7936;DHT22;4013;49.744;8.118;2022-09-12T02:23:33;13.90;99.90
7936;DHT22;4013;49.744;8.118;2022-09-12T02:26:04;13.90;99.90
7936;DHT22;4013;49.744;8.118;2022-09-12T02:28:35;13.90;99.90
7936;DHT22;4013;49.744;8.118;2022-09-12T02:31:12;14.00;99.90
7936;DHT22;4013;49.744;8.118;2022-09-12T02:33:47;13.90;99.90
7936;DHT22;4013;49.744;8.118;2022-09-12T02:36:23;13.90;99.90
7936;DHT22;4013;49.744;8.118;2022-09-12T02:38:54;14.00;99.90
7936;DHT22;4013;49.744;8.118;2022-09-12T02:41:22;14.00;99.90
7936;DHT22;4013;49.744;8.118;2022-09-12T02:43:50;13.90;99.90
7936;DHT22;4013;49.744;8.118;2022-09-12T02:46:21;13.80;99.90
7936;DHT22;4013;49.744;8.118;2022-09-12T02:48:50;13.70;99.90
7936;DHT22;4013;49.744;8.118;2022-09-12T02:51:17;13.80;99.90
7936;DHT22;4013;49.744;8.118;2022-09-12T02:53:44;13.80;99.90
7936;DHT22;4013;49.744;8.118;2022-09-12T02:56:17;13.80;99.90
7936;DHT22;4013;49.744;8.118;2022-09-12T02:58:47;13.80;99.90
7936;DHT22;4013;49.744;8.118;2022-09-12T03:01:24;13.80;99.90
7936;DHT22;4013;49.744;8.118;2022-09-12T03:04:06;13.70;99.90
7936;DHT22;4013;49.744;8.118;2022-09-12T03:06:44;13.60;99.90
7936;DHT22;4013;49.744;8.118;2022-09-12T03:09:17;13.60;99.90
7936;DHT22;4013;49.744;8.118;2022-09-12T03:11:57;13.50;99.90
7936;DHT22;4013;49.744;8.118;2022-09-12T03:14:42;13.50;99.90
7936;DHT22;4013;49.744;8.118;2022-09-12T03:17:17;13.40;99.90
7936;DHT22;4013;49.744;8.118;2022-09-12T03:19:53;13.40;99.90
7936;DHT22;4013;49.744;8.118;2022-09-12T03:22:28;13.40;99.90
7936;DHT22;4013;49.744;8.118;2022-09-12T03:25:03;13.30;99.90
7936;DHT22;4013;49.744;8.118;2022-09-12T03:27:34;13.20;99.90
7936;DHT22;4013;49.744;8.118;2022-09-12T03:30:04;13.20;99.90
7936;DHT22;4013;49.744;8.118;2022-09-12T03:32:42;13.40;99.90
7936;DHT22;4013;49.744;8.118;2022-09-12T03:35:11;13.50;99.90
7936;DHT22;4013;49.744;8.118;2022-09-12T03:37:39;13.40;99.90
7936;DHT22;4013;49.744;8.118;2022-09-12T03:40:07;13.40;99.90
7936;DHT22;4013;49.744;8.118;2022-09-12T03:42:34;13.30;99.90
7936;DHT22;4013;49.744;8.118;2022-09-12T03:45:01;13.30;99.90
7936;DHT22;4013;49.744;8.118;2022-09-12T03:47:28;13.20;99.90
7936;DHT22;4013;49.744;8.118;2022-09-12T03:49:55;13.20;99.90
7936;DHT22;4013;49.744;8.118;2022-09-12T03:52:24;13.30;99.90
7936;DHT22;4013;49.744;8.118;2022-09-12T03:54:50;13.30;99.90
7936;DHT22;4013;49.744;8.118;2022-09-12T03:57:17;13.40;99.90
7936;DHT22;4013;49.744;8.118;2022-09-12T03:59:44;13.40;99.90
7936;DHT22;4013;49.744;8.118;2022-09-12T04:02:11;13.40;99.90
7936;DHT22;4013;49.744;8.118;2022-09-12T04:04:40;13.50;99.90
7936;DHT22;4013;49.744;8.118;2022-09-12T04:07:08;13.50;99.90
7936;DHT22;4013;49.744;8.118;2022-09-12T04:09:36;13.40;99.90
7936;DHT22;4013;49.744;8.118;2022-09-12T04:12:03;13.30;99.90
7936;DHT22;4013;49.744;8.118;2022-09-12T04:14:30;13.20;99.90
7936;DHT22;4013;49.744;8.118;2022-09-12T04:16:57;13.10;99.90
7936;DHT22;4013;49.744;8.118;2022-09-12T04:19:24;13.10;99.90
7936;DHT22;4013;49.744;8.118;2022-09-12T04:21:52;13.00;99.90
7936;DHT22;4013;49.744;8.118;2022-09-12T04:24:19;13.10;99.90
7936;DHT22;4013;49.744;8.118;2022-09-12T04:26:47;13.20;99.90
7936;DHT22;4013;49.744;8.118;2022-09-12T04:29:14;13.20;99.90
7936;DHT22;4013;49.744;8.118;2022-09-12T04:31:41;13.20;99.90
7936;DHT22;4013;49.744;8.118;2022-09-12T04:34:08;13.10;99.90
7936;DHT22;4013;49.744;8.118;2022-09-12T04:36:35;13.10;99.90
7936;DHT22;4013;49.744;8.118;2022-09-12T04:39:03;13.00;99.90
7936;DHT22;4013;49.744;8.118;2022-09-12T04:41:32;13.00;99.90
7936;DHT22;4013;49.744;8.118;2022-09-12T04:44:03;13.00;99.90
7936;DHT22;4013;49.744;8.118;2022-09-12T04:46:32;13.00;99.90
7936;DHT22;4013;49.744;8.118;2022-09-12T04:49:00;13.10;99.90
7936;DHT22;4013;49.744;8.118;2022-09-12T04:51:29;12.90;99.90
7936;DHT22;4013;49.744;8.118;2022-09-12T04:53:57;12.80;99.90
7936;DHT22;4013;49.744;8.118;2022-09-12T04:56:25;12.90;99.90
7936;DHT22;4013;49.744;8.118;2022-09-12T04:58:53;13.00;99.90
7936;DHT22;4013;49.744;8.118;2022-09-12T05:01:22;13.00;99.90
7936;DHT22;4013;49.744;8.118;2022-09-12T05:03:50;13.00;99.90
7936;DHT22;4013;49.744;8.118;2022-09-12T05:06:18;13.00;99.90
7936;DHT22;4013;49.744;8.118;2022-09-12T05:08:46;13.00;99.90
7936;DHT22;4013;49.744;8.118;2022-09-12T05:11:15;13.10;99.90
7936;DHT22;4013;49.744;8.118;2022-09-12T05:13:42;13.20;99.90
7936;DHT22;4013;49.744;8.118;2022-09-12T05:16:10;13.10;99.90
7936;DHT22;4013;49.744;8.118;2022-09-12T05:18:39;13.00;99.90
7936;DHT22;4013;49.744;8.118;2022-09-12T05:21:09;13.00;99.90
7936;DHT22;4013;49.744;8.118;2022-09-12T05:23:36;13.00;99.90
7936;DHT22;4013;49.744;8.118;2022-09-12T05:26:04;13.00;99.90
7936;DHT22;4013;49.744;8.118;2022-09-12T05:28:33;13.00;99.90
7936;DHT22;4013;49.744;8.118;2022-09-12T05:31:02;13.30;99.90
7936;DHT22;4013;49.744;8.118;2022-09-12T05:33:29;13.40;99.90
7936;DHT22;4013;49.744;8.118;2022-09-12T05:35:58;13.50;99.90
7936;DHT22;4013;49.744;8.118;2022-09-12T05:38:26;13.50;99.90
7936;DHT22;4013;49.744;8.118;2022-09-12T05:40:53;13.60;99.90
7936;DHT22;4013;49.744;8.118;2022-09-12T05:43:28;13.70;99.90
7936;DHT22;4013;49.744;8.118;2022-09-12T05:45:59;13.80;99.90
7936;DHT22;4013;49.744;8.118;2022-09-12T05:48:27;13.90;99.90
7936;DHT22;4013;49.744;8.118;2022-09-12T05:50:59;13.90;99.90
7936;DHT22;4013;49.744;8.118;2022-09-12T05:53:27;14.00;99.90
7936;DHT22;4013;49.744;8.118;2022-09-12T05:56:02;14.00;99.90
7936;DHT22;4013;49.744;8.118;2022-09-12T05:58:29;14.10;99.90
7936;DHT22;4013;49.744;8.118;2022-09-12T06:01:00;14.20;99.90
7936;DHT22;4013;49.744;8.118;2022-09-12T06:03:28;14.30;99.90
7936;DHT22;4013;49.744;8.118;2022-09-12T06:05:54;14.40;99.90
7936;DHT22;4013;49.744;8.118;2022-09-12T06:08:23;14.40;99.90
7936;DHT22;4013;49.744;8.118;2022-09-12T06:10:49;14.40;99.90
7936;DHT22;4013;49.744;8.118;2022-09-12T06:13:16;14.40;99.90
7936;DHT22;4013;49.744;8.118;2022-09-12T06:15:43;14.30;99.90
7936;DHT22;4013;49.744;8.118;2022-09-12T06:18:10;14.30;99.90
7936;DHT22;4013;49.744;8.118;2022-09-12T06:20:37;14.40;99.90
7936;DHT22;4013;49.744;8.118;2022-09-12T06:23:04;14.40;99.90
7936;DHT22;4013;49.744;8.118;2022-09-12T06:25:33;14.50;99.90
7936;DHT22;4013;49.744;8.118;2022-09-12T06:27:59;14.50;99.90
7936;DHT22;4013;49.744;8.118;2022-09-12T06:30:26;14.50;99.90
7936;DHT22;4013;49.744;8.118;2022-09-12T06:32:53;14.40;99.90
7936;DHT22;4013;49.744;8.118;2022-09-12T06:35:21;14.40;99.90
7936;DHT22;4013;49.744;8.118;2022-09-12T06:37:49;14.40;99.90
7936;DHT22;4013;49.744;8.118;2022-09-12T06:40:15;14.50;99.90
7936;DHT22;4013;49.744;8.118;2022-09-12T06:42:44;14.50;99.90
7936;DHT22;4013;49.744;8.118;2022-09-12T06:45:10;14.60;99.90
7936;DHT22;4013;49.744;8.118;2022-09-12T06:47:41;14.60;99.90
7936;DHT22;4013;49.744;8.118;2022-09-12T06:50:08;14.60;99.90
7936;DHT22;4013;49.744;8.118;2022-09-12T06:52:35;14.60;99.90
7936;DHT22;4013;49.744;8.118;2022-09-12T06:55:03;14.70;99.90
7936;DHT22;4013;49.744;8.118;2022-09-12T06:57:30;14.80;99.90
7936;DHT22;4013;49.744;8.118;2022-09-12T07:00:03;14.80;99.90
7936;DHT22;4013;49.744;8.118;2022-09-12T07:02:31;14.80;99.90
7936;DHT22;4013;49.744;8.118;2022-09-12T07:04:58;15.00;99.90
7936;DHT22;4013;49.744;8.118;2022-09-12T07:07:25;14.90;99.90
7936;DHT22;4013;49.744;8.118;2022-09-12T07:09:51;14.90;99.90
7936;DHT22;4013;49.744;8.118;2022-09-12T07:12:18;14.90;99.90
7936;DHT22;4013;49.744;8.118;2022-09-12T07:14:45;15.00;99.90
7936;DHT22;4013;49.744;8.118;2022-09-12T07:17:13;15.00;99.90
7936;DHT22;4013;49.744;8.118;2022-09-12T07:19:40;15.00;99.90
7936;DHT22;4013;49.744;8.118;2022-09-12T07:22:07;15.10;99.90
7936;DHT22;4013;49.744;8.118;2022-09-12T07:24:34;15.10;99.90
7936;DHT22;4013;49.744;8.118;2022-09-12T07:27:02;15.10;99.90
7936;DHT22;4013;49.744;8.118;2022-09-12T07:29:28;15.20;99.90
7936;DHT22;4013;49.744;8.118;2022-09-12T07:31:55;15.30;99.90
7936;DHT22;4013;49.744;8.118;2022-09-12T07:34:23;15.30;99.90
7936;DHT22;4013;49.744;8.118;2022-09-12T07:36:50;15.30;99.90
7936;DHT22;4013;49.744;8.118;2022-09-12T07:39:17;15.30;99.90
7936;DHT22;4013;49.744;8.118;2022-09-12T07:41:44;15.50;99.90
7936;DHT22;4013;49.744;8.118;2022-09-12T07:44:11;15.60;99.90
7936;DHT22;4013;49.744;8.118;2022-09-12T07:46:38;15.70;99.90
7936;DHT22;4013;49.744;8.118;2022-09-12T07:49:05;15.70;99.90
7936;DHT22;4013;49.744;8.118;2022-09-12T07:51:33;15.80;99.90
7936;DHT22;4013;49.744;8.118;2022-09-12T07:54:00;15.90;99.90
7936;DHT22;4013;49.744;8.118;2022-09-12T07:56:28;15.90;99.90
7936;DHT22;4013;49.744;8.118;2022-09-12T07:58:54;16.00;99.90
7936;DHT22;4013;49.744;8.118;2022-09-12T08:01:22;16.00;99.90
7936;DHT22;4013;49.744;8.118;2022-09-12T08:03:52;16.00;99.90
7936;DHT22;4013;49.744;8.118;2022-09-12T08:06:21;16.00;99.90
7936;DHT22;4013;49.744;8.118;2022-09-12T08:08:50;16.00;99.90
7936;DHT22;4013;49.744;8.118;2022-09-12T08:11:19;16.10;99.90
7936;DHT22;4013;49.744;8.118;2022-09-12T08:13:47;16.20;99.90
7936;DHT22;4013;49.744;8.118;2022-09-12T08:16:16;16.30;99.90
7936;DHT22;4013;49.744;8.118;2022-09-12T08:18:43;16.40;99.90
7936;DHT22;4013;49.744;8.118;2022-09-12T08:21:12;16.50;99.90
7936;DHT22;4013;49.744;8.118;2022-09-12T08:23:40;16.60;99.90
7936;DHT22;4013;49.744;8.118;2022-09-12T08:26:09;16.70;99.90
7936;DHT22;4013;49.744;8.118;2022-09-12T08:28:37;16.70;99.90
7936;DHT22;4013;49.744;8.118;2022-09-12T08:31:06;16.80;99.90
7936;DHT22;4013;49.744;8.118;2022-09-12T08:33:34;16.80;99.90
7936;DHT22;4013;49.744;8.118;2022-09-12T08:36:03;16.90;99.90
7936;DHT22;4013;49.744;8.118;2022-09-12T08:38:31;17.00;99.90
7936;DHT22;4013;49.744;8.118;2022-09-12T08:41:03;17.10;99.90
7936;DHT22;4013;49.744;8.118;2022-09-12T08:43:54;17.10;99.90
7936;DHT22;4013;49.744;8.118;2022-09-12T08:46:26;17.30;99.90
7936;DHT22;4013;49.744;8.118;2022-09-12T08:48:56;17.40;99.90
7936;DHT22;4013;49.744;8.118;2022-09-12T08:51:24;17.30;99.90
7936;DHT22;4013;49.744;8.118;2022-09-12T08:53:54;17.30;99.90
7936;DHT22;4013;49.744;8.118;2022-09-12T08:56:23;17.40;99.90
7936;DHT22;4013;49.744;8.118;2022-09-12T08:58:53;17.40;99.90
7936;DHT22;4013;49.744;8.118;2022-09-12T09:01:26;17.60;99.90
7936;DHT22;4013;49.744;8.118;2022-09-12T09:04:08;17.70;99.90
7936;DHT22;4013;49.744;8.118;2022-09-12T09:06:59;17.90;99.90
7936;DHT22;4013;49.744;8.118;2022-09-12T09:09:39;18.10;99.90
7936;DHT22;4013;49.744;8.118;2022-09-12T09:12:14;18.10;99.90
7936;DHT22;4013;49.744;8.118;2022-09-12T09:14:55;18.10;99.90
7936;DHT22;4013;49.744;8.118;2022-09-12T09:17:28;18.20;99.90
7936;DHT22;4013;49.744;8.118;2022-09-12T09:20:02;18.30;99.90
7936;DHT22;4013;49.744;8.118;2022-09-12T09:22:36;18.50;99.90
7936;DHT22;4013;49.744;8.118;2022-09-12T09:25:10;18.60;99.90
7936;DHT22;4013;49.744;8.118;2022-09-12T09:27:43;18.70;99.90
7936;DHT22;4013;49.744;8.118;2022-09-12T09:30:15;18.70;99.90
7936;DHT22;4013;49.744;8.118;2022-09-12T09:32:44;18.70;99.90
7936;DHT22;4013;49.744;8.118;2022-09-12T09:35:16;18.80;99.90
7936;DHT22;4013;49.744;8.118;2022-09-12T09:37:54;18.70;99.90
7936;DHT22;4013;49.744;8.118;2022-09-12T09:40:25;18.70;99.90
7936;DHT22;4013;49.744;8.118;2022-09-12T09:42:58;18.80;99.90
7936;DHT22;4013;49.744;8.118;2022-09-12T09:45:28;18.80;99.90
7936;DHT22;4013;49.744;8.118;2022-09-12T09:47:57;18.80;99.90
7936;DHT22;4013;49.744;8.118;2022-09-12T09:50:26;18.90;99.90
7936;DHT22;4013;49.744;8.118;2022-09-12T09:52:55;18.90;99.90
7936;DHT22;4013;49.744;8.118;2022-09-12T09:55:29;18.90;99.90
7936;DHT22;4013;49.744;8.118;2022-09-12T09:57:58;19.00;99.90
7936;DHT22;4013;49.744;8.118;2022-09-12T10:00:31;19.10;99.90
7936;DHT22;4013;49.744;8.118;2022-09-12T10:03:05;19.20;99.90
7936;DHT22;4013;49.744;8.118;2022-09-12T10:05:45;19.20;99.90
7936;DHT22;4013;49.744;8.118;2022-09-12T10:08:19;19.30;99.90
7936;DHT22;4013;49.744;8.118;2022-09-12T10:10:53;19.40;99.90
7936;DHT22;4013;49.744;8.118;2022-09-12T10:13:25;19.40;99.90
7936;DHT22;4013;49.744;8.118;2022-09-12T10:16:00;19.50;99.90
7936;DHT22;4013;49.744;8.118;2022-09-12T10:18:36;19.60;99.90
7936;DHT22;4013;49.744;8.118;2022-09-12T10:21:17;19.70;99.90
7936;DHT22;4013;49.744;8.118;2022-09-12T10:23:45;19.70;99.90
7936;DHT22;4013;49.744;8.118;2022-09-12T10:26:14;19.70;99.90
7936;DHT22;4013;49.744;8.118;2022-09-12T10:28:46;19.70;99.90
7936;DHT22;4013;49.744;8.118;2022-09-12T10:31:23;19.90;99.90
7936;DHT22;4013;49.744;8.118;2022-09-12T10:33:54;19.90;99.90
7936;DHT22;4013;49.744;8.118;2022-09-12T10:36:22;20.00;99.90
7936;DHT22;4013;49.744;8.118;2022-09-12T10:38:51;20.10;99.90
7936;DHT22;4013;49.744;8.118;2022-09-12T10:41:19;20.10;99.90
7936;DHT22;4013;49.744;8.118;2022-09-12T10:43:48;20.20;99.90
7936;DHT22;4013;49.744;8.118;2022-09-12T10:46:28;20.20;99.90
7936;DHT22;4013;49.744;8.118;2022-09-12T10:49:21;20.20;99.90
7936;DHT22;4013;49.744;8.118;2022-09-12T10:51:49;20.30;99.90
7936;DHT22;4013;49.744;8.118;2022-09-12T10:54:18;20.40;99.90
7936;DHT22;4013;49.744;8.118;2022-09-12T10:57:03;20.40;99.90
7936;DHT22;4013;49.744;8.118;2022-09-12T10:59:48;20.50;99.90
7936;DHT22;4013;49.744;8.118;2022-09-12T11:02:27;20.60;99.90
7936;DHT22;4013;49.744;8.118;2022-09-12T11:05:00;20.80;99.90
7936;DHT22;4013;49.744;8.118;2022-09-12T11:07:36;20.90;99.90
7936;DHT22;4013;49.744;8.118;2022-09-12T11:10:20;21.10;99.90
7936;DHT22;4013;49.744;8.118;2022-09-12T11:13:01;21.10;99.90
7936;DHT22;4013;49.744;8.118;2022-09-12T11:15:40;21.20;99.90
7936;DHT22;4013;49.744;8.118;2022-09-12T11:18:18;21.30;99.90
7936;DHT22;4013;49.744;8.118;2022-09-12T11:20:58;21.30;99.90
7936;DHT22;4013;49.744;8.118;2022-09-12T11:23:53;21.40;99.90
7936;DHT22;4013;49.744;8.118;2022-09-12T11:26:40;21.40;99.90
7936;DHT22;4013;49.744;8.118;2022-09-12T11:29:16;21.50;99.90
7936;DHT22;4013;49.744;8.118;2022-09-12T11:31:55;21.60;99.90
7936;DHT22;4013;49.744;8.118;2022-09-12T11:34:35;21.60;99.90
7936;DHT22;4013;49.744;8.118;2022-09-12T11:37:27;21.60;99.90
7936;DHT22;4013;49.744;8.118;2022-09-12T11:40:04;21.70;99.90
7936;DHT22;4013;49.744;8.118;2022-09-12T11:42:36;21.80;99.90
7936;DHT22;4013;49.744;8.118;2022-09-12T11:45:24;21.90;99.90
7936;DHT22;4013;49.744;8.118;2022-09-12T11:47:54;21.90;99.90
7936;DHT22;4013;49.744;8.118;2022-09-12T11:50:26;21.90;99.90
7936;DHT22;4013;49.744;8.118;2022-09-12T11:52:56;22.00;99.90
7936;DHT22;4013;49.744;8.118;2022-09-12T11:55:26;22.00;99.90
7936;DHT22;4013;49.744;8.118;2022-09-12T11:57:56;21.90;99.90
7936;DHT22;4013;49.744;8.118;2022-09-12T12:00:26;21.90;99.90
7936;DHT22;4013;49.744;8.118;2022-09-12T12:03:02;22.00;99.90
7936;DHT22;4013;49.744;8.118;2022-09-12T12:05:36;22.20;99.90
7936;DHT22;4013;49.744;8.118;2022-09-12T12:08:06;22.40;99.90
7936;DHT22;4013;49.744;8.118;2022-09-12T12:10:36;22.40;99.90
7936;DHT22;4013;49.744;8.118;2022-09-12T12:13:06;22.50;99.90
7936;DHT22;4013;49.744;8.118;2022-09-12T12:15:35;22.50;99.90
7936;DHT22;4013;49.744;8.118;2022-09-12T12:18:06;22.60;99.90
7936;DHT22;4013;49.744;8.118;2022-09-12T12:20:35;22.80;99.90
7936;DHT22;4013;49.744;8.118;2022-09-12T12:23:02;22.80;99.90
7936;DHT22;4013;49.744;8.118;2022-09-12T12:25:40;22.80;99.90
7936;DHT22;4013;49.744;8.118;2022-09-12T12:28:57;22.90;99.90
7936;DHT22;4013;49.744;8.118;2022-09-12T12:31:24;23.00;99.90
7936;DHT22;4013;49.744;8.118;2022-09-12T12:34:20;23.00;99.90
7936;DHT22;4013;49.744;8.118;2022-09-12T12:36:49;23.10;99.90
7936;DHT22;4013;49.744;8.118;2022-09-12T12:48:47;23.20;99.90
7936;DHT22;4013;49.744;8.118;2022-09-12T12:51:29;23.30;99.90
7936;DHT22;4013;49.744;8.118;2022-09-12T12:53:58;23.10;99.90
7936;DHT22;4013;49.744;8.118;2022-09-12T12:56:33;23.20;99.90
7936;DHT22;4013;49.744;8.118;2022-09-12T12:59:02;23.20;99.90
7936;DHT22;4013;49.744;8.118;2022-09-12T13:01:31;23.30;99.90
7936;DHT22;4013;49.744;8.118;2022-09-12T13:04:11;23.40;99.90
7936;DHT22;4013;49.744;8.118;2022-09-12T13:06:41;23.70;99.90
7936;DHT22;4013;49.744;8.118;2022-09-12T13:09:23;24.20;99.90
7936;DHT22;4013;49.744;8.118;2022-09-12T13:11:57;25.30;99.90
7936;DHT22;4013;49.744;8.118;2022-09-12T13:14:35;25.80;99.90
7936;DHT22;4013;49.744;8.118;2022-09-12T13:17:05;26.10;99.90
7936;DHT22;4013;49.744;8.118;2022-09-12T13:19:35;25.80;99.90
7936;DHT22;4013;49.744;8.118;2022-09-12T13:22:04;25.50;99.90
7936;DHT22;4013;49.744;8.118;2022-09-12T13:24:33;25.20;99.90
7936;DHT22;4013;49.744;8.118;2022-09-12T13:27:01;24.70;99.90
7936;DHT22;4013;49.744;8.118;2022-09-12T13:29:28;24.60;99.90
7936;DHT22;4013;49.744;8.118;2022-09-12T13:31:57;24.50;99.90
7936;DHT22;4013;49.744;8.118;2022-09-12T13:34:27;24.30;99.90
7936;DHT22;4013;49.744;8.118;2022-09-12T13:37:13;24.20;99.90
7936;DHT22;4013;49.744;8.118;2022-09-12T13:39:47;24.20;99.90
7936;DHT22;4013;49.744;8.118;2022-09-12T13:42:39;24.20;99.90
7936;DHT22;4013;49.744;8.118;2022-09-12T13:45:12;24.10;99.90
7936;DHT22;4013;49.744;8.118;2022-09-12T13:47:41;24.10;99.90
7936;DHT22;4013;49.744;8.118;2022-09-12T13:50:14;24.00;99.90
7936;DHT22;4013;49.744;8.118;2022-09-12T13:52:45;23.90;99.90
7936;DHT22;4013;49.744;8.118;2022-09-12T13:55:27;23.90;99.90
7936;DHT22;4013;49.744;8.118;2022-09-12T13:57:57;23.80;99.90
7936;DHT22;4013;49.744;8.118;2022-09-12T14:00:25;23.90;99.90
7936;DHT22;4013;49.744;8.118;2022-09-12T14:02:53;24.10;99.90
7936;DHT22;4013;49.744;8.118;2022-09-12T14:05:42;24.30;99.10
7936;DHT22;4013;49.744;8.118;2022-09-12T14:08:12;24.30;99.90
7936;DHT22;4013;49.744;8.118;2022-09-12T14:10:42;24.40;99.90
7936;DHT22;4013;49.744;8.118;2022-09-12T14:13:11;24.50;99.90
7936;DHT22;4013;49.744;8.118;2022-09-12T14:15:43;24.50;99.90
7936;DHT22;4013;49.744;8.118;2022-09-12T14:18:21;24.60;99.90
7936;DHT22;4013;49.744;8.118;2022-09-12T14:20:50;24.60;99.90
7936;DHT22;4013;49.744;8.118;2022-09-12T14:23:24;24.90;98.90
7936;DHT22;4013;49.744;8.118;2022-09-12T14:25:55;24.80;98.60
7936;DHT22;4013;49.744;8.118;2022-09-12T14:28:24;24.70;97.00
7936;DHT22;4013;49.744;8.118;2022-09-12T14:31:00;24.50;97.90
7936;DHT22;4013;49.744;8.118;2022-09-12T14:33:30;24.40;99.40
7936;DHT22;4013;49.744;8.118;2022-09-12T14:36:09;24.30;99.50
7936;DHT22;4013;49.744;8.118;2022-09-12T14:38:41;24.30;99.10
7936;DHT22;4013;49.744;8.118;2022-09-12T14:41:12;24.20;99.90
7936;DHT22;4013;49.744;8.118;2022-09-12T14:43:43;24.20;99.90
7936;DHT22;4013;49.744;8.118;2022-09-12T14:46:15;24.30;99.90
7936;DHT22;4013;49.744;8.118;2022-09-12T14:48:47;24.40;99.90
7936;DHT22;4013;49.744;8.118;2022-09-12T14:51:20;24.40;99.90
7936;DHT22;4013;49.744;8.118;2022-09-12T14:53:49;24.40;99.90
7936;DHT22;4013;49.744;8.118;2022-09-12T14:56:19;24.40;99.90
7936;DHT22;4013;49.744;8.118;2022-09-12T14:58:47;24.40;99.10
7936;DHT22;4013;49.744;8.118;2022-09-12T15:01:25;24.30;99.40
7936;DHT22;4013;49.744;8.118;2022-09-12T15:03:54;24.30;99.60
7936;DHT22;4013;49.744;8.118;2022-09-12T15:06:23;24.30;99.50
7936;DHT22;4013;49.744;8.118;2022-09-12T15:08:52;24.30;98.40
7936;DHT22;4013;49.744;8.118;2022-09-12T15:11:21;24.30;99.20
7936;DHT22;4013;49.744;8.118;2022-09-12T15:13:48;24.00;98.40
7936;DHT22;4013;49.744;8.118;2022-09-12T15:16:15;24.00;99.10
7936;DHT22;4013;49.744;8.118;2022-09-12T15:18:42;23.80;98.40
7936;DHT22;4013;49.744;8.118;2022-09-12T15:21:14;23.70;98.10
7936;DHT22;4013;49.744;8.118;2022-09-12T15:23:44;23.80;97.80
7936;DHT22;4013;49.744;8.118;2022-09-12T15:26:13;24.00;97.90
7936;DHT22;4013;49.744;8.118;2022-09-12T15:28:42;24.20;98.00
7936;DHT22;4013;49.744;8.118;2022-09-12T15:31:14;24.30;99.90
7936;DHT22;4013;49.744;8.118;2022-09-12T15:33:44;24.10;99.90
7936;DHT22;4013;49.744;8.118;2022-09-12T15:36:14;24.00;99.90
7936;DHT22;4013;49.744;8.118;2022-09-12T15:38:42;23.90;99.90
7936;DHT22;4013;49.744;8.118;2022-09-12T15:41:10;23.80;99.90
7936;DHT22;4013;49.744;8.118;2022-09-12T15:43:38;23.60;99.90
7936;DHT22;4013;49.744;8.118;2022-09-12T15:46:09;23.60;99.90
7936;DHT22;4013;49.744;8.118;2022-09-12T15:48:37;23.50;99.90
7936;DHT22;4013;49.744;8.118;2022-09-12T15:51:04;23.50;99.90
7936;DHT22;4013;49.744;8.118;2022-09-12T15:53:31;23.40;99.90
7936;DHT22;4013;49.744;8.118;2022-09-12T15:55:57;23.40;99.90
7936;DHT22;4013;49.744;8.118;2022-09-12T15:58:24;23.40;99.90
7936;DHT22;4013;49.744;8.118;2022-09-12T16:00:51;23.40;99.90
7936;DHT22;4013;49.744;8.118;2022-09-12T16:03:22;23.30;99.90
7936;DHT22;4013;49.744;8.118;2022-09-12T16:05:49;23.30;99.90
7936;DHT22;4013;49.744;8.118;2022-09-12T16:08:20;23.30;99.90
7936;DHT22;4013;49.744;8.118;2022-09-12T16:10:50;23.20;99.90
7936;DHT22;4013;49.744;8.118;2022-09-12T16:13:18;23.20;99.90
7936;DHT22;4013;49.744;8.118;2022-09-12T16:15:45;23.10;99.90
7936;DHT22;4013;49.744;8.118;2022-09-12T16:18:12;23.10;99.90
7936;DHT22;4013;49.744;8.118;2022-09-12T16:20:40;23.10;99.90
7936;DHT22;4013;49.744;8.118;2022-09-12T16:23:10;23.10;99.90
7936;DHT22;4013;49.744;8.118;2022-09-12T16:25:36;23.10;99.90
7936;DHT22;4013;49.744;8.118;2022-09-12T16:28:04;23.10;99.90
7936;DHT22;4013;49.744;8.118;2022-09-12T16:30:31;23.00;99.90
7936;DHT22;4013;49.744;8.118;2022-09-12T16:32:58;23.00;99.90
7936;DHT22;4013;49.744;8.118;2022-09-12T16:35:25;22.90;99.90
7936;DHT22;4013;49.744;8.118;2022-09-12T16:37:53;22.90;99.90
7936;DHT22;4013;49.744;8.118;2022-09-12T16:40:20;22.80;99.90
7936;DHT22;4013;49.744;8.118;2022-09-12T16:42:48;22.80;99.90